createdAt,value
2023-05-02T00:02:21.837Z,22.00
2023-05-02T00:04:49.143Z,17.80
2023-05-02T00:07:16.180Z,19.30
2023-05-02T00:09:43.175Z,22.40
2023-05-02T00:12:10.209Z,18.90
2023-05-02T00:14:37.248Z,17.80
2023-05-02T00:17:04.421Z,20.20
2023-05-02T00:19:31.589Z,19.30
2023-05-02T00:21:58.549Z,21.00
2023-05-02T00:24:27.195Z,20.30
2023-05-02T00:26:54.230Z,22.60
2023-05-02T00:29:22.135Z,21.80
2023-05-02T00:31:49.150Z,22.50
2023-05-02T00:34:16.214Z,21.40
2023-05-02T00:36:43.224Z,21.50
2023-05-02T00:39:11.048Z,20.70
2023-05-02T00:41:38.039Z,20.20
2023-05-02T00:44:05.240Z,21.50
2023-05-02T00:46:32.430Z,19.20
2023-05-02T00:48:59.546Z,17.60
2023-05-02T00:51:27.627Z,16.50
2023-05-02T00:53:54.951Z,19.70
2023-05-02T00:56:21.979Z,17.70
2023-05-02T00:58:49.024Z,18.70
2023-05-02T01:01:25.815Z,19.20
2023-05-02T01:04:21.307Z,19.10
2023-05-02T01:06:58.849Z,20.10
2023-05-02T01:10:07.613Z,16.90
2023-05-02T01:12:47.416Z,20.10
2023-05-02T01:15:19.585Z,18.10
2023-05-02T01:17:47.036Z,20.00
2023-05-02T01:20:16.661Z,21.90
2023-05-02T01:22:43.695Z,22.80
2023-05-02T01:25:16.936Z,33.70
2023-05-02T01:28:07.564Z,36.80
2023-05-02T01:30:35.074Z,35.70
2023-05-02T01:33:02.786Z,39.70
2023-05-02T01:35:30.010Z,31.50
2023-05-02T01:37:57.095Z,28.80
2023-05-02T01:40:25.344Z,26.20
2023-05-02T01:42:52.364Z,25.30
2023-05-02T01:45:19.998Z,25.90
2023-05-02T01:47:47.221Z,24.40
2023-05-02T01:50:17.759Z,25.30
2023-05-02T01:52:44.814Z,22.90
2023-05-02T01:55:13.672Z,26.60
2023-05-02T01:57:41.404Z,29.70
2023-05-02T02:00:09.330Z,27.60
2023-05-02T02:02:42.984Z,26.30
2023-05-02T02:05:10.854Z,22.00
2023-05-02T02:07:37.849Z,24.90
2023-05-02T02:10:05.198Z,24.10
2023-05-02T02:13:06.771Z,23.30
2023-05-02T02:15:35.382Z,25.10
2023-05-02T02:18:09.265Z,24.40
2023-05-02T02:20:36.458Z,23.60
2023-05-02T02:23:05.668Z,22.80
2023-05-02T02:25:33.388Z,28.50
2023-05-02T02:28:01.292Z,28.00
2023-05-02T02:30:28.423Z,28.20
2023-05-02T02:32:55.474Z,27.90
2023-05-02T02:35:22.734Z,23.90
2023-05-02T02:38:34.884Z,30.80
2023-05-02T02:41:17.089Z,45.40
2023-05-02T02:44:13.504Z,45.80
2023-05-02T02:47:09.424Z,45.10
2023-05-02T02:49:42.492Z,40.90
2023-05-02T02:54:58.655Z,43.90
2023-05-02T02:57:30.962Z,45.80
2023-05-02T03:00:09.013Z,42.10
2023-05-02T03:02:36.173Z,44.10
2023-05-02T03:05:04.182Z,43.80
2023-05-02T03:07:31.727Z,42.40
2023-05-02T03:09:59.102Z,43.40
2023-05-02T03:12:26.447Z,53.60
2023-05-02T03:14:53.450Z,59.10
2023-05-02T03:17:20.601Z,53.80
2023-05-02T03:19:47.720Z,51.10
2023-05-02T03:22:15.160Z,49.30
2023-05-02T03:24:42.224Z,51.40
2023-05-02T03:27:09.817Z,49.50
2023-05-02T03:29:39.349Z,33.40
2023-05-02T03:32:06.988Z,33.90
2023-05-02T03:34:34.954Z,32.50
2023-05-02T03:37:02.071Z,28.60
2023-05-02T03:39:29.741Z,29.20
2023-05-02T03:41:56.791Z,29.70
2023-05-02T03:44:23.994Z,24.40
2023-05-02T03:46:51.144Z,27.20
2023-05-02T03:49:19.965Z,20.10
2023-05-02T03:51:47.733Z,20.70
2023-05-02T03:54:16.130Z,21.00
2023-05-02T03:56:45.262Z,18.30
2023-05-02T03:59:19.414Z,14.30
2023-05-02T04:01:50.585Z,11.50
2023-05-02T04:04:19.558Z,10.10
2023-05-02T04:06:50.268Z,9.20
2023-05-02T04:09:17.572Z,8.50
2023-05-02T04:11:52.433Z,9.80
2023-05-02T04:14:19.627Z,11.10
2023-05-02T04:16:51.190Z,9.30
2023-05-02T04:19:23.449Z,8.00
2023-05-02T04:21:50.632Z,9.00
2023-05-02T04:24:18.281Z,9.50
2023-05-02T04:26:47.653Z,8.00
2023-05-02T04:29:15.158Z,9.80
2023-05-02T04:31:42.645Z,8.30
2023-05-02T04:34:11.001Z,7.80
2023-05-02T04:36:42.791Z,9.00
2023-05-02T04:39:12.695Z,7.00
2023-05-02T04:41:44.503Z,6.70
2023-05-02T04:44:11.604Z,7.60
2023-05-02T04:46:38.817Z,6.30
2023-05-02T04:49:05.925Z,8.20
2023-05-02T04:51:32.941Z,7.70
2023-05-02T04:53:59.972Z,6.10
2023-05-02T04:56:27.584Z,7.80
2023-05-02T04:58:54.936Z,5.10
2023-05-02T05:01:24.306Z,6.80
2023-05-02T05:03:51.653Z,8.10
2023-05-02T05:06:19.682Z,5.60
2023-05-02T05:08:47.180Z,7.50
2023-05-02T05:11:16.261Z,5.50
2023-05-02T05:13:43.473Z,6.00
2023-05-02T05:16:12.290Z,5.60
2023-05-02T05:18:42.640Z,5.30
2023-05-02T05:21:12.519Z,4.40
2023-05-02T05:23:40.351Z,6.60
2023-05-02T05:26:16.013Z,6.10
2023-05-02T05:28:46.088Z,4.90
2023-05-02T05:31:16.816Z,4.70
2023-05-02T05:33:46.999Z,5.60
2023-05-02T05:36:17.572Z,8.90
2023-05-02T05:38:45.221Z,5.40
2023-05-02T05:41:12.849Z,4.70
2023-05-02T05:43:44.410Z,6.60
2023-05-02T05:46:11.444Z,4.40
2023-05-02T05:48:38.610Z,5.80
2023-05-02T05:51:06.118Z,5.90
2023-05-02T05:53:33.552Z,5.50
2023-05-02T05:56:12.406Z,4.70
2023-05-02T05:58:44.476Z,4.60
2023-05-02T06:01:13.366Z,6.10
2023-05-02T06:03:41.197Z,6.90
2023-05-02T06:06:08.611Z,5.40
2023-05-02T06:08:35.722Z,6.60
2023-05-02T06:11:04.014Z,5.60
2023-05-02T06:13:31.267Z,4.80
2023-05-02T06:16:01.899Z,7.80
2023-05-02T06:18:29.971Z,6.70
2023-05-02T06:20:56.983Z,4.60
2023-05-02T06:23:23.983Z,5.50
2023-05-02T06:25:51.538Z,4.10
2023-05-02T06:28:18.678Z,5.00
2023-05-02T06:30:45.693Z,5.40
2023-05-02T06:33:13.148Z,4.80
2023-05-02T06:35:40.151Z,5.50
2023-05-02T06:38:07.136Z,7.50
2023-05-02T06:40:36.721Z,5.00
2023-05-02T06:43:03.755Z,5.10
2023-05-02T06:45:30.840Z,5.00
2023-05-02T06:47:57.924Z,4.80
2023-05-02T06:50:25.005Z,4.90
2023-05-02T06:52:52.055Z,4.70
2023-05-02T06:55:19.170Z,5.10
2023-05-02T06:57:46.602Z,4.70
2023-05-02T07:00:14.873Z,4.70
2023-05-02T07:02:41.931Z,5.60
2023-05-02T07:05:09.277Z,4.70
2023-05-02T07:07:36.330Z,4.70
2023-05-02T07:10:04.453Z,4.90
2023-05-02T07:12:31.638Z,3.60
2023-05-02T07:14:58.700Z,4.60
2023-05-02T07:17:25.839Z,4.30
2023-05-02T07:19:53.273Z,4.80
2023-05-02T07:22:21.284Z,4.50
2023-05-02T07:24:48.338Z,7.30
2023-05-02T07:27:15.382Z,4.00
2023-05-02T07:29:43.068Z,4.00
2023-05-02T07:32:10.263Z,2.90
2023-05-02T07:34:37.385Z,4.20
2023-05-02T07:37:04.374Z,4.10
2023-05-02T07:39:33.095Z,2.70
2023-05-02T07:42:00.212Z,5.70
2023-05-02T07:44:27.257Z,5.60
2023-05-02T07:46:54.314Z,3.70
2023-05-02T07:49:21.440Z,3.30
2023-05-02T07:51:48.443Z,7.10
2023-05-02T07:54:19.385Z,3.40
2023-05-02T07:56:47.301Z,2.60
2023-05-02T07:59:14.292Z,3.10
2023-05-02T08:01:44.806Z,5.30
2023-05-02T08:04:12.360Z,3.50
2023-05-02T08:06:39.665Z,3.10
2023-05-02T08:09:06.741Z,2.80
2023-05-02T08:11:33.827Z,4.20
2023-05-02T08:14:01.068Z,3.50
2023-05-02T08:16:28.090Z,5.40
2023-05-02T08:18:55.184Z,16.50
2023-05-02T08:21:22.401Z,3.40
2023-05-02T08:23:49.514Z,5.10
2023-05-02T08:26:19.258Z,3.20
2023-05-02T08:28:46.242Z,3.20
2023-05-02T08:31:13.338Z,3.00
2023-05-02T08:33:40.514Z,3.90
2023-05-02T08:36:12.263Z,3.40
2023-05-02T08:38:39.292Z,2.90
2023-05-02T08:41:20.089Z,6.40
2023-05-02T08:43:47.257Z,3.70
2023-05-02T08:46:16.108Z,4.10
2023-05-02T08:48:44.958Z,3.10
2023-05-02T08:51:14.289Z,3.60
2023-05-02T08:53:41.510Z,3.20
2023-05-02T08:56:09.137Z,3.50
2023-05-02T08:58:38.359Z,5.80
2023-05-02T09:01:19.802Z,3.30
2023-05-02T09:03:47.870Z,3.30
2023-05-02T09:06:19.728Z,3.10
2023-05-02T09:08:52.578Z,3.90
2023-05-02T09:13:52.049Z,3.10
2023-05-02T09:16:23.051Z,3.10
2023-05-02T09:18:57.624Z,4.10
2023-05-02T09:21:26.589Z,2.70
2023-05-02T09:23:55.271Z,3.00
2023-05-02T09:26:35.353Z,2.70
2023-05-02T09:29:04.015Z,3.80
2023-05-02T09:31:54.984Z,3.00
2023-05-02T09:34:23.759Z,3.70
2023-05-02T09:36:54.721Z,2.70
2023-05-02T09:39:25.823Z,3.90
2023-05-02T09:41:53.585Z,3.30
2023-05-02T09:44:25.421Z,2.40
2023-05-02T09:46:53.750Z,3.90
2023-05-02T09:49:48.960Z,5.20
2023-05-02T09:52:17.785Z,2.70
2023-05-02T09:54:47.041Z,2.10
2023-05-02T09:57:14.315Z,3.70
2023-05-02T09:59:41.717Z,2.90
2023-05-02T10:02:11.761Z,3.80
2023-05-02T10:04:39.797Z,4.00
2023-05-02T10:07:07.699Z,3.70
2023-05-02T10:09:36.011Z,3.40
2023-05-02T10:12:05.336Z,3.70
2023-05-02T10:14:32.402Z,2.80
2023-05-02T10:17:09.628Z,6.30
2023-05-02T10:19:49.182Z,3.20
2023-05-02T10:22:16.274Z,2.50
2023-05-02T10:24:43.324Z,2.30
2023-05-02T10:27:10.373Z,3.70
2023-05-02T10:29:37.373Z,3.00
2023-05-02T10:32:04.872Z,2.90
2023-05-02T10:34:32.901Z,2.50
2023-05-02T10:37:01.650Z,2.40
2023-05-02T10:39:29.306Z,1.90
2023-05-02T10:41:57.991Z,3.70
2023-05-02T10:44:34.386Z,2.10
2023-05-02T10:47:01.610Z,2.80
2023-05-02T10:49:30.106Z,4.00
2023-05-02T10:51:57.116Z,3.00
2023-05-02T10:54:24.977Z,4.30
2023-05-02T10:57:04.550Z,2.30
2023-05-02T10:59:44.022Z,3.50
2023-05-02T11:02:23.804Z,4.40
2023-05-02T11:05:04.708Z,2.60
2023-05-02T11:07:36.294Z,3.80
2023-05-02T11:11:38.217Z,3.20
2023-05-02T11:14:05.299Z,2.50
2023-05-02T11:17:09.843Z,3.80
2023-05-02T11:19:46.206Z,3.50
2023-05-02T11:22:19.387Z,2.20
2023-05-02T11:24:50.338Z,5.20
2023-05-02T11:27:30.042Z,2.80
2023-05-02T11:30:07.206Z,3.30
2023-05-02T11:32:49.866Z,2.80
2023-05-02T11:35:24.144Z,4.70
2023-05-02T11:37:55.216Z,4.50
2023-05-02T11:40:22.536Z,2.00
2023-05-02T11:42:49.609Z,3.80
2023-05-02T11:45:16.944Z,3.40
2023-05-02T11:47:44.006Z,3.70
2023-05-02T11:50:11.284Z,3.80
2023-05-02T11:52:43.186Z,2.50
2023-05-02T11:55:14.236Z,3.00
2023-05-02T11:57:41.371Z,4.40
2023-05-02T12:00:11.178Z,3.20
2023-05-02T12:02:42.696Z,3.00
2023-05-02T12:05:12.593Z,5.70
2023-05-02T12:07:41.967Z,2.00
2023-05-02T12:10:09.469Z,2.80
2023-05-02T12:12:36.981Z,2.40
2023-05-02T12:15:05.162Z,3.10
2023-05-02T12:17:33.461Z,4.60
2023-05-02T12:20:00.909Z,5.10
2023-05-02T12:22:28.167Z,4.50
2023-05-02T12:24:55.340Z,2.70
2023-05-02T12:27:22.401Z,3.30
2023-05-02T12:29:49.750Z,2.50
2023-05-02T12:32:30.211Z,2.80
2023-05-02T12:34:58.278Z,2.50
2023-05-02T12:37:26.203Z,2.50
2023-05-02T12:39:57.088Z,3.50
2023-05-02T12:42:25.545Z,2.90
2023-05-02T12:44:53.420Z,3.70
2023-05-02T12:47:21.685Z,2.50
2023-05-02T12:49:53.059Z,3.30
2023-05-02T12:52:20.678Z,8.50
2023-05-02T12:54:47.748Z,3.40
2023-05-02T12:57:25.249Z,2.60
2023-05-02T12:59:55.420Z,2.40
2023-05-02T13:02:22.958Z,3.50
2023-05-02T13:04:50.422Z,2.50
2023-05-02T13:07:17.484Z,3.40
2023-05-02T13:09:44.509Z,3.60
2023-05-02T13:12:11.565Z,2.70
2023-05-02T13:14:39.411Z,3.80
2023-05-02T13:17:08.933Z,3.10
2023-05-02T13:19:37.334Z,2.80
2023-05-02T13:22:05.879Z,2.70
2023-05-02T13:24:32.983Z,2.60
2023-05-02T13:27:00.050Z,3.60
2023-05-02T13:29:27.106Z,3.30
2023-05-02T13:31:54.092Z,2.60
2023-05-02T13:34:21.096Z,3.70
2023-05-02T13:36:48.172Z,2.50
2023-05-02T13:39:15.326Z,3.60
2023-05-02T13:41:42.463Z,4.20
2023-05-02T13:44:09.663Z,4.80
2023-05-02T13:46:38.087Z,3.20
2023-05-02T13:49:05.466Z,3.30
2023-05-02T13:51:32.697Z,2.40
2023-05-02T13:53:59.914Z,2.40
2023-05-02T13:56:27.264Z,3.00
2023-05-02T13:58:54.266Z,2.80
2023-05-02T14:01:21.341Z,3.60
2023-05-02T14:03:48.635Z,2.90
2023-05-02T14:06:16.727Z,2.50
2023-05-02T14:08:44.044Z,4.60
2023-05-02T14:11:11.634Z,4.70
2023-05-02T14:13:38.622Z,3.30
2023-05-02T14:16:06.073Z,3.70
2023-05-02T14:18:33.128Z,3.60
2023-05-02T14:21:00.381Z,2.50
2023-05-02T14:23:30.190Z,3.90
2023-05-02T14:25:57.551Z,2.80
2023-05-02T14:28:24.552Z,3.20
2023-05-02T14:30:51.642Z,4.10
2023-05-02T14:33:18.697Z,3.80
2023-05-02T14:35:46.148Z,3.70
2023-05-02T14:38:13.145Z,2.90
2023-05-02T14:40:40.654Z,3.40
2023-05-02T14:43:08.565Z,5.20
2023-05-02T14:45:35.697Z,3.40
2023-05-02T14:48:02.856Z,3.90
2023-05-02T14:50:29.931Z,2.30
2023-05-02T14:52:57.027Z,2.20
2023-05-02T14:55:24.319Z,2.40
2023-05-02T14:57:51.320Z,2.70
2023-05-02T15:00:18.547Z,3.10
2023-05-02T15:02:45.554Z,3.80
2023-05-02T15:05:13.065Z,3.20
2023-05-02T15:07:40.351Z,4.20
2023-05-02T15:10:08.221Z,3.30
2023-05-02T15:12:35.361Z,3.20
2023-05-02T15:15:02.429Z,4.40
2023-05-02T15:17:29.421Z,3.50
2023-05-02T15:19:58.378Z,4.30
2023-05-02T15:22:26.360Z,2.60
2023-05-02T15:24:53.334Z,2.70
2023-05-02T15:27:20.466Z,4.00
2023-05-02T15:29:47.483Z,5.00
2023-05-02T15:32:14.661Z,4.80
2023-05-02T15:34:41.806Z,1.90
2023-05-02T15:37:08.853Z,2.20
2023-05-02T15:39:35.972Z,3.60
2023-05-02T15:42:05.132Z,2.50
2023-05-02T15:44:37.476Z,2.50
2023-05-02T15:47:04.808Z,2.60
2023-05-02T15:49:33.475Z,3.50
2023-05-02T15:52:01.588Z,3.50
2023-05-02T15:54:28.773Z,2.30
2023-05-02T15:56:56.033Z,3.30
2023-05-02T15:59:22.983Z,2.70
2023-05-02T16:01:50.036Z,3.20
2023-05-02T16:04:17.136Z,4.00
2023-05-02T16:06:44.559Z,3.40
2023-05-02T16:09:13.078Z,3.30
2023-05-02T16:11:40.141Z,2.80
2023-05-02T16:14:07.248Z,2.90
2023-05-02T16:16:34.653Z,3.00
2023-05-02T16:19:01.711Z,2.80
2023-05-02T16:21:28.827Z,3.40
2023-05-02T16:23:55.900Z,3.20
2023-05-02T16:26:22.922Z,4.10
2023-05-02T16:28:49.958Z,3.20
2023-05-02T16:31:16.960Z,3.60
2023-05-02T16:33:44.095Z,3.70
2023-05-02T16:36:11.408Z,2.20
2023-05-02T16:38:38.432Z,5.50
2023-05-02T16:41:07.325Z,3.20
2023-05-02T16:43:34.828Z,3.20
2023-05-02T16:46:02.778Z,3.30
2023-05-02T16:48:29.855Z,2.80
2023-05-02T16:50:57.295Z,2.60
2023-05-02T16:53:24.959Z,4.40
2023-05-02T16:55:52.127Z,3.90
2023-05-02T16:58:19.509Z,2.70
2023-05-02T17:00:46.888Z,3.20
2023-05-02T17:03:13.995Z,3.70
2023-05-02T17:05:41.611Z,3.40
2023-05-02T17:08:09.837Z,3.20
2023-05-02T17:10:38.026Z,3.50
2023-05-02T17:13:05.076Z,2.60
2023-05-02T17:15:38.681Z,2.50
2023-05-02T17:18:05.932Z,3.50
2023-05-02T17:20:34.502Z,2.70
2023-05-02T17:23:02.472Z,3.80
2023-05-02T17:25:30.591Z,4.80
2023-05-02T17:27:57.598Z,5.00
2023-05-02T17:30:25.440Z,3.60
2023-05-02T17:32:52.568Z,4.50
2023-05-02T17:35:19.640Z,5.50
2023-05-02T17:37:46.690Z,3.30
2023-05-02T17:40:13.686Z,5.20
2023-05-02T17:42:44.075Z,3.80
2023-05-02T17:45:11.273Z,3.80
2023-05-02T17:47:38.390Z,4.40
2023-05-02T17:50:05.990Z,5.40
2023-05-02T17:52:34.865Z,4.30
2023-05-02T17:55:02.226Z,3.50
2023-05-02T17:57:29.302Z,3.70
2023-05-02T18:00:00.105Z,5.60
2023-05-02T18:02:29.005Z,3.30
2023-05-02T18:04:56.120Z,4.10
2023-05-02T18:07:29.149Z,8.00
2023-05-02T18:12:29.792Z,6.20
2023-05-02T18:14:57.201Z,7.60
2023-05-02T18:17:24.593Z,5.60
2023-05-02T18:19:51.637Z,6.40
2023-05-02T18:22:21.532Z,5.20
2023-05-02T18:24:49.634Z,6.40
2023-05-02T18:27:17.931Z,4.50
2023-05-02T18:29:44.935Z,4.30
2023-05-02T18:32:11.974Z,4.10
2023-05-02T18:34:39.258Z,3.60
2023-05-02T18:37:07.200Z,4.20
2023-05-02T18:39:34.459Z,4.50
2023-05-02T18:42:03.372Z,6.60
2023-05-02T18:44:31.348Z,5.30
2023-05-02T18:46:58.348Z,6.10
2023-05-02T18:49:26.484Z,5.40
2023-05-02T18:51:54.649Z,7.70
2023-05-02T18:54:23.644Z,9.90
2023-05-02T18:56:50.776Z,15.20
2023-05-02T18:59:19.049Z,19.80
2023-05-02T19:01:48.372Z,10.10
2023-05-02T19:04:15.548Z,11.00
2023-05-02T19:06:42.715Z,14.00
2023-05-02T19:09:09.930Z,11.90
2023-05-02T19:11:37.050Z,7.90
2023-05-02T19:14:04.099Z,7.30
2023-05-02T19:16:31.734Z,7.00
2023-05-02T19:18:58.917Z,13.60
2023-05-02T19:21:26.391Z,16.90
2023-05-02T19:23:53.597Z,15.30
2023-05-02T19:26:20.915Z,17.50
2023-05-02T19:28:47.926Z,7.80
2023-05-02T19:31:19.651Z,10.60
2023-05-02T19:33:51.193Z,9.00
2023-05-02T19:36:19.055Z,7.10
2023-05-02T19:38:54.028Z,10.40
2023-05-02T19:41:22.296Z,6.90
2023-05-02T19:43:49.557Z,12.60
2023-05-02T19:46:17.083Z,10.10
2023-05-02T19:48:44.884Z,9.40
2023-05-02T19:51:11.959Z,10.80
2023-05-02T19:53:39.184Z,8.40
2023-05-02T19:56:09.058Z,12.00
2023-05-02T19:58:37.361Z,11.30
2023-05-02T20:01:04.596Z,8.00
2023-05-02T20:03:32.197Z,7.40
2023-05-02T20:05:59.451Z,8.40
2023-05-02T20:08:28.205Z,8.20
2023-05-02T20:10:56.089Z,9.10
2023-05-02T20:13:23.297Z,7.00
2023-05-02T20:15:51.037Z,8.90
2023-05-02T20:18:18.079Z,7.60
2023-05-02T20:20:46.025Z,11.50
2023-05-02T20:23:13.684Z,12.00
2023-05-02T20:25:42.666Z,9.90
2023-05-02T20:28:10.288Z,6.80
2023-05-02T20:30:39.356Z,9.50
2023-05-02T20:33:14.771Z,10.30
2023-05-02T20:35:44.035Z,8.80
2023-05-02T20:38:11.492Z,9.60
2023-05-02T20:40:40.285Z,9.20
2023-05-02T20:43:07.993Z,10.50
2023-05-02T20:45:35.058Z,8.60
2023-05-02T20:48:02.181Z,11.00
2023-05-02T20:50:29.280Z,10.50
2023-05-02T20:52:56.806Z,10.50
2023-05-02T20:55:24.547Z,9.80
2023-05-02T20:57:53.710Z,8.70
2023-05-02T21:00:22.950Z,8.30
2023-05-02T21:02:50.046Z,8.20
2023-05-02T21:05:17.166Z,10.60
2023-05-02T21:07:45.103Z,10.10
2023-05-02T21:10:12.252Z,10.90
2023-05-02T21:12:39.694Z,9.40
2023-05-02T21:15:07.872Z,11.50
2023-05-02T21:17:35.013Z,10.90
2023-05-02T21:20:02.680Z,12.20
2023-05-02T21:22:30.000Z,11.00
2023-05-02T21:24:56.986Z,10.10
2023-05-02T21:27:24.138Z,8.90
2023-05-02T21:29:51.517Z,9.00
2023-05-02T21:32:18.533Z,13.30
2023-05-02T21:34:45.975Z,16.00
2023-05-02T21:37:13.062Z,12.40
2023-05-02T21:39:40.095Z,11.50
2023-05-02T21:42:07.191Z,12.80
2023-05-02T21:44:34.219Z,11.00
2023-05-02T21:47:01.225Z,15.10
2023-05-02T21:49:30.204Z,11.40
2023-05-02T21:51:58.628Z,11.40
2023-05-02T21:54:25.700Z,13.10
2023-05-02T21:56:55.803Z,12.90
2023-05-02T21:59:22.825Z,12.60
2023-05-02T22:01:50.048Z,14.40
2023-05-02T22:04:18.212Z,11.80
2023-05-02T22:06:51.845Z,13.40
2023-05-02T22:09:19.765Z,15.60
2023-05-02T22:11:47.480Z,9.70
2023-05-02T22:14:14.504Z,11.60
2023-05-02T22:16:41.598Z,13.40
2023-05-02T22:19:11.011Z,14.30
2023-05-02T22:21:38.011Z,12.90
2023-05-02T22:24:05.417Z,11.40
2023-05-02T22:26:32.395Z,12.60
2023-05-02T22:28:59.371Z,12.40
2023-05-02T22:31:27.417Z,10.90
2023-05-02T22:33:54.533Z,12.60
2023-05-02T22:36:21.612Z,14.40
2023-05-02T22:38:48.727Z,11.50
2023-05-02T22:41:15.770Z,12.40
2023-05-02T22:43:42.822Z,11.80
2023-05-02T22:46:09.889Z,13.70
2023-05-02T22:48:36.990Z,9.20
2023-05-02T22:51:04.154Z,10.50
2023-05-02T22:53:31.584Z,11.20
2023-05-02T22:55:58.622Z,9.70
2023-05-02T22:58:25.621Z,9.00
2023-05-02T23:00:52.661Z,12.00
2023-05-02T23:03:19.759Z,12.60
2023-05-02T23:05:47.092Z,13.00
2023-05-02T23:08:14.183Z,11.70
2023-05-02T23:10:41.250Z,9.40
2023-05-02T23:13:08.299Z,10.00
2023-05-02T23:15:35.349Z,10.70
2023-05-02T23:18:02.506Z,10.60
2023-05-02T23:20:29.565Z,11.60
2023-05-02T23:22:56.769Z,14.00
2023-05-02T23:25:23.753Z,10.70
2023-05-02T23:29:09.601Z,11.50
2023-05-02T23:31:37.023Z,10.50
2023-05-02T23:34:04.124Z,11.90
2023-05-02T23:36:34.838Z,15.80
2023-05-02T23:39:02.966Z,11.30
2023-05-02T23:41:30.198Z,12.40
2023-05-02T23:43:57.182Z,10.20
2023-05-02T23:46:24.843Z,12.70
2023-05-02T23:48:52.002Z,12.30
2023-05-02T23:51:19.034Z,10.70
2023-05-02T23:53:46.068Z,12.10
2023-05-02T23:56:13.120Z,12.00
2023-05-02T23:58:40.158Z,10.60
